Time;durP1;ratioP1;P1;durP2;ratioP2;P2;SDS_P1;SDS_P2;PMS_P1;PMS_P2;Temp;Humidity;BMP_temperature;BMP_pressure;BME280_temperature;BME280_humidity;BME280_pressure;Samples;Min_cycle;Max_cycle;Signal;HPM_P1;HPM_P2
2022/04/29 00:00:16;;;;;;;6.68;2.92;;;10.20;75.60;;;;;;5061236;28;20434;-66
2022/04/29 00:02:42;;;;;;;;;;;10.10;75.70;;;;;;5063442;28;20052;-67
2022/04/29 00:05:08;;;;;;;5.18;2.67;;;10.10;75.80;;;;;;5063149;28;20399;-67
2022/04/29 00:07:35;;;;;;;6.20;2.85;;;10.00;76.00;;;;;;5059120;28;20020;-67
2022/04/29 00:10:01;;;;;;;4.45;2.25;;;10.10;76.00;;;;;;5059206;28;20484;-67
2022/04/29 00:12:26;;;;;;;6.28;2.45;;;10.00;75.60;;;;;;5060126;28;20090;-67
2022/04/29 00:14:52;;;;;;;5.68;2.72;;;10.00;75.70;;;;;;5052367;28;20021;-67
2022/04/29 00:17:18;;;;;;;6.93;2.55;;;10.10;75.60;;;;;;5058356;28;20024;-66
2022/04/29 00:19:45;;;;;;;4.88;2.20;;;10.10;75.60;;;;;;5063099;28;20658;-67
2022/04/29 00:22:11;;;;;;;4.25;2.20;;;10.10;75.60;;;;;;5054253;28;20021;-67
2022/04/29 00:24:36;;;;;;;5.18;2.47;;;10.00;75.50;;;;;;5053795;28;20036;-67
2022/04/29 00:27:02;;;;;;;5.93;2.58;;;9.90;75.60;;;;;;5053924;28;20526;-67
2022/04/29 00:29:28;;;;;;;5.00;3.05;;;9.90;75.90;;;;;;5062254;28;20082;-67
2022/04/29 00:31:53;;;;;;;6.03;2.40;;;9.90;76.00;;;;;;5062172;28;20580;-67
2022/04/29 00:34:19;;;;;;;8.00;3.05;;;9.90;76.00;;;;;;5056282;28;20485;-67
2022/04/29 00:36:44;;;;;;;3.42;2.75;;;9.80;76.00;;;;;;5055355;28;20151;-67
2022/04/29 00:39:10;;;;;;;4.20;2.05;;;9.80;76.10;;;;;;5051070;28;20029;-67
2022/04/29 00:41:36;;;;;;;3.30;2.10;;;9.80;76.10;;;;;;5058481;28;20341;-67
2022/04/29 00:44:07;;;;;;;5.68;2.45;;;9.80;76.20;;;;;;5056000;28;20037;-67
2022/04/29 00:46:35;;;;;;;5.28;2.97;;;9.70;76.30;;;;;;5054126;28;20081;-67
2022/04/29 00:49:01;;;;;;;9.48;2.80;;;9.60;76.60;;;;;;5058933;28;20025;-67
2022/04/29 00:51:27;;;;;;;7.00;2.78;;;9.60;77.00;;;;;;5060692;28;20506;-67
2022/04/29 00:53:55;;;;;;;3.58;2.60;;;9.50;77.10;;;;;;5053310;28;20044;-67
2022/04/29 00:56:22;;;;;;;5.43;3.17;;;9.40;77.40;;;;;;5069104;28;20021;-67
2022/04/29 00:58:55;;;;;;;3.88;2.75;;;9.40;77.60;;;;;;5061904;28;20028;-67
2022/04/29 01:01:21;;;;;;;6.13;3.53;;;9.40;77.70;;;;;;5059516;28;20028;-67
2022/04/29 01:03:48;;;;;;;8.35;4.20;;;9.30;78.20;;;;;;5056225;28;20039;-67
2022/04/29 01:06:14;;;;;;;5.55;3.38;;;9.30;78.60;;;;;;5061579;28;20021;-67
2022/04/29 01:08:39;;;;;;;6.90;3.90;;;9.20;78.90;;;;;;5055479;28;20021;-67
2022/04/29 01:11:05;;;;;;;9.82;4.60;;;9.20;79.20;;;;;;5055765;28;20033;-67
2022/04/29 01:13:31;;;;;;;10.10;4.90;;;9.20;79.40;;;;;;5050975;28;20024;-67
2022/04/29 01:15:57;;;;;;;7.35;4.75;;;9.10;79.80;;;;;;5059163;28;20035;-67
2022/04/29 01:18:24;;;;;;;14.10;5.18;;;9.10;80.00;;;;;;5061851;28;20408;-67
2022/04/29 01:21:03;;;;;;;7.30;4.13;;;9.00;80.30;;;;;;5055647;28;20021;-67
2022/04/29 01:23:29;;;;;;;9.20;5.60;;;9.00;80.50;;;;;;5055404;28;20024;-66
2022/04/29 01:25:55;;;;;;;8.85;5.30;;;8.90;80.80;;;;;;5070632;28;20025;-67
2022/04/29 01:28:24;;;;;;;7.45;5.93;;;9.00;80.90;;;;;;5063003;28;20393;-67
2022/04/29 01:30:51;;;;;;;6.23;4.40;;;9.00;81.20;;;;;;5055337;28;20024;-67
2022/04/29 01:33:18;;;;;;;8.32;5.60;;;8.90;81.30;;;;;;5055402;28;20021;-67
2022/04/29 01:35:45;;;;;;;10.18;6.10;;;9.00;81.70;;;;;;5061006;28;20492;-67
2022/04/29 01:38:10;;;;;;;9.68;5.70;;;9.00;81.90;;;;;;5060605;28;20029;-67
2022/04/29 01:40:36;;;;;;;10.70;6.72;;;8.90;81.90;;;;;;5055753;28;20017;-67
2022/04/29 01:43:02;;;;;;;9.07;6.22;;;8.90;82.10;;;;;;5052013;28;20033;-67
2022/04/29 01:45:28;;;;;;;8.73;6.00;;;8.80;82.20;;;;;;5055586;28;20051;-67
2022/04/29 01:47:53;;;;;;;11.82;6.03;;;8.80;82.50;;;;;;5053112;28;20477;-67
2022/04/29 01:50:19;;;;;;;5.70;4.85;;;8.70;82.70;;;;;;5061208;28;20481;-67
2022/04/29 01:52:45;;;;;;;8.88;5.93;;;8.70;82.70;;;;;;5052114;28;20024;-66
2022/04/29 01:55:10;;;;;;;6.70;5.25;;;8.70;82.60;;;;;;5052453;28;20032;-67
2022/04/29 01:57:36;;;;;;;9.73;5.55;;;8.70;82.70;;;;;;5057013;28;20027;-67
2022/04/29 02:00:04;;;;;;;6.88;5.53;;;8.70;82.90;;;;;;5054905;28;20024;-67
2022/04/29 02:02:30;;;;;;;9.05;5.40;;;8.70;83.10;;;;;;5060128;28;20057;-67
2022/04/29 02:04:55;;;;;;;10.45;6.20;;;8.70;83.10;;;;;;5061401;28;20020;-67
2022/04/29 02:07:21;;;;;;;7.15;5.78;;;8.60;83.30;;;;;;5061560;28;20068;-67
2022/04/29 02:09:47;;;;;;;10.05;6.43;;;8.70;83.40;;;;;;5057316;28;20190;-66
2022/04/29 02:12:12;;;;;;;9.02;6.57;;;8.60;83.60;;;;;;5048677;28;20026;-67
2022/04/29 02:14:39;;;;;;;11.07;7.00;;;8.60;83.90;;;;;;5055315;28;20031;-67
2022/04/29 02:17:07;;;;;;;9.02;6.60;;;8.60;84.20;;;;;;5048231;28;20028;-66
2022/04/29 02:19:33;;;;;;;9.82;6.82;;;8.50;84.20;;;;;;5049425;28;20032;-67
2022/04/29 02:22:00;;;;;;;9.27;7.15;;;8.50;84.40;;;;;;5051742;28;20826;-67
2022/04/29 02:24:26;;;;;;;11.77;7.05;;;8.50;84.60;;;;;;5048892;28;20392;-67
2022/04/29 02:26:53;;;;;;;12.27;6.90;;;8.40;84.80;;;;;;5051570;28;20017;-67
2022/04/29 02:29:19;;;;;;;9.07;6.68;;;8.40;85.10;;;;;;5055533;28;20062;-67
2022/04/29 02:31:45;;;;;;;10.93;6.57;;;8.40;85.40;;;;;;5050965;28;20475;-66
2022/04/29 02:34:10;;;;;;;9.30;7.15;;;8.30;85.50;;;;;;5051900;28;20552;-67
2022/04/29 02:36:36;;;;;;;10.68;7.72;;;8.30;85.60;;;;;;5057618;28;20040;-66
2022/04/29 02:39:03;;;;;;;11.57;6.88;;;8.30;85.80;;;;;;5048541;28;20025;-66
2022/04/29 02:41:29;;;;;;;11.27;6.70;;;8.30;85.90;;;;;;5057579;28;20393;-67
2022/04/29 02:43:54;;;;;;;9.45;6.68;;;8.30;86.10;;;;;;5054740;28;20029;-66
2022/04/29 02:46:20;;;;;;;11.65;7.22;;;8.20;86.20;;;;;;5050117;28;20131;-67
2022/04/29 02:48:47;;;;;;;8.48;6.93;;;8.20;86.20;;;;;;5054127;28;20435;-67
2022/04/29 02:51:13;;;;;;;10.20;6.40;;;8.20;86.30;;;;;;5051515;28;20025;-67
2022/04/29 02:53:39;;;;;;;11.30;7.63;;;8.30;86.40;;;;;;5051062;28;20381;-67
2022/04/29 02:56:04;;;;;;;11.32;7.10;;;8.30;86.60;;;;;;5061884;28;20753;-67
2022/04/29 02:58:30;;;;;;;13.63;8.13;;;8.30;86.60;;;;;;5055766;28;20028;-67
2022/04/29 03:00:56;;;;;;;12.95;7.13;;;8.30;86.90;;;;;;5057272;28;20024;-66
2022/04/29 03:03:22;;;;;;;13.77;7.75;;;8.20;87.10;;;;;;5052512;28;20021;-67
2022/04/29 03:05:47;;;;;;;9.90;7.57;;;8.10;87.20;;;;;;5058689;28;20032;-66
2022/04/29 03:08:13;;;;;;;10.65;7.78;;;8.20;87.50;;;;;;5052546;28;20492;-67
2022/04/29 03:10:38;;;;;;;11.60;8.23;;;8.10;87.50;;;;;;5056476;28;20120;-66
2022/04/29 03:13:04;;;;;;;12.38;7.93;;;8.10;87.60;;;;;;5059022;28;20025;-66
2022/04/29 03:15:30;;;;;;;10.90;7.47;;;8.10;87.90;;;;;;5053615;28;20028;-66
2022/04/29 03:20:43;;;;;;;10.20;8.38;;;8.00;88.40;;;;;;5053897;28;20082;-67
2022/04/29 03:23:09;;;;;;;15.60;9.02;;;8.00;88.90;;;;;;5053396;28;20056;-66
2022/04/29 03:25:35;;;;;;;14.57;8.73;;;7.90;89.30;;;;;;5048392;28;20538;-67
2022/04/29 03:28:02;;;;;;;13.55;9.43;;;8.00;89.70;;;;;;5052628;28;20040;-66
2022/04/29 03:30:27;;;;;;;16.33;9.35;;;7.90;89.80;;;;;;5056767;28;20377;-67
2022/04/29 03:32:57;;;;;;;14.73;9.18;;;7.90;90.00;;;;;;5061668;28;20032;-66
2022/04/29 03:35:23;;;;;;;13.82;8.85;;;7.90;90.00;;;;;;5050580;28;20173;-67
2022/04/29 03:37:51;;;;;;;15.25;8.73;;;7.80;90.10;;;;;;5055179;28;20594;-66
2022/04/29 03:40:20;;;;;;;13.98;8.75;;;7.80;90.20;;;;;;5056328;28;20132;-66
2022/04/29 03:42:46;;;;;;;14.52;9.73;;;7.80;90.40;;;;;;5050330;28;20027;-67
2022/04/29 03:45:12;;;;;;;13.38;8.93;;;7.80;90.60;;;;;;5054181;28;20013;-67
2022/04/29 03:47:38;;;;;;;12.68;9.60;;;7.80;90.70;;;;;;5055316;28;20040;-67
2022/04/29 03:50:05;;;;;;;9.82;8.63;;;7.80;90.70;;;;;;5050520;28;20040;-67
2022/04/29 03:52:30;;;;;;;17.45;10.00;;;7.80;90.80;;;;;;5052343;28;20051;-67
2022/04/29 03:54:56;;;;;;;17.20;10.35;;;7.80;90.90;;;;;;5053835;28;20118;-66
2022/04/29 03:57:21;;;;;;;15.50;10.18;;;7.70;91.00;;;;;;5054483;28;20372;-68
2022/04/29 03:59:48;;;;;;;16.13;10.60;;;7.70;91.10;;;;;;5047789;28;20043;-67
2022/04/29 04:02:14;;;;;;;15.45;9.65;;;7.70;91.30;;;;;;5048083;28;20473;-67
2022/04/29 04:04:40;;;;;;;12.30;9.00;;;7.70;91.30;;;;;;5055892;28;20032;-67
2022/04/29 04:07:05;;;;;;;14.48;9.85;;;7.70;91.40;;;;;;5050541;28;20376;-66
2022/04/29 04:09:31;;;;;;;18.65;9.98;;;7.70;91.50;;;;;;5050203;28;20047;-67
2022/04/29 04:11:56;;;;;;;15.40;8.55;;;7.70;91.60;;;;;;5055978;28;20491;-67
2022/04/29 04:14:22;;;;;;;14.82;9.68;;;7.70;91.60;;;;;;5058526;28;20040;-67
2022/04/29 04:16:48;;;;;;;15.40;9.93;;;7.70;91.60;;;;;;5051775;28;20033;-67
2022/04/29 04:19:14;;;;;;;18.10;10.38;;;7.70;91.70;;;;;;5060310;28;20049;-66
2022/04/29 04:21:39;;;;;;;19.33;10.07;;;7.70;91.90;;;;;;5058223;28;20031;-66
2022/04/29 04:24:06;;;;;;;14.15;10.10;;;7.70;92.00;;;;;;5055248;28;20057;-67
2022/04/29 04:26:32;;;;;;;11.63;9.00;;;7.70;92.10;;;;;;5059238;28;20025;-66
2022/04/29 04:28:58;;;;;;;13.48;9.57;;;7.70;92.10;;;;;;5059434;28;20024;-66
2022/04/29 04:31:24;;;;;;;16.83;9.63;;;7.80;92.10;;;;;;5056549;28;20031;-67
2022/04/29 04:33:51;;;;;;;12.25;8.55;;;7.80;92.20;;;;;;5059524;28;20032;-66
2022/04/29 04:36:16;;;;;;;18.10;11.07;;;7.80;92.30;;;;;;5057992;28;20103;-66
2022/04/29 04:38:44;;;;;;;15.43;9.20;;;7.80;92.40;;;;;;5059961;28;20446;-67
2022/04/29 04:41:10;;;;;;;16.88;9.88;;;7.80;92.50;;;;;;5056227;28;20074;-67
2022/04/29 04:43:35;;;;;;;18.58;10.27;;;7.80;92.60;;;;;;5063999;28;20028;-66
2022/04/29 04:46:01;;;;;;;16.85;10.43;;;7.80;92.60;;;;;;5058052;28;20113;-66
2022/04/29 04:48:27;;;;;;;15.90;10.43;;;7.80;92.70;;;;;;5054495;28;20079;-66
2022/04/29 04:50:53;;;;;;;13.35;9.18;;;7.80;92.70;;;;;;5068620;28;20028;-66
2022/04/29 04:53:19;;;;;;;16.48;10.30;;;7.80;92.90;;;;;;5051154;28;20083;-66
2022/04/29 04:55:44;;;;;;;17.92;9.73;;;7.80;92.90;;;;;;5058811;28;20059;-66
2022/04/29 04:58:10;;;;;;;18.35;10.38;;;7.80;92.90;;;;;;5074218;28;20021;-66
2022/04/29 05:00:36;;;;;;;14.85;10.35;;;7.80;92.90;;;;;;5056934;28;20381;-66
2022/04/29 05:03:02;;;;;;;12.90;8.48;;;7.80;93.00;;;;;;5060178;28;20475;-66
2022/04/29 05:05:27;;;;;;;16.20;9.18;;;7.90;93.00;;;;;;5059048;28;20030;-66
2022/04/29 05:07:53;;;;;;;14.05;9.20;;;7.90;93.00;;;;;;5057364;28;20540;-67
2022/04/29 05:10:19;;;;;;;13.43;9.05;;;7.90;93.00;;;;;;5057499;28;20043;-66
2022/04/29 05:12:46;;;;;;;13.38;8.63;;;7.90;93.00;;;;;;5056936;28;20039;-67
2022/04/29 05:15:16;;;;;;;14.10;9.00;;;7.90;93.00;;;;;;5061514;28;20074;-66
2022/04/29 05:17:42;;;;;;;10.25;7.57;;;7.90;93.10;;;;;;5057004;28;20033;-66
2022/04/29 05:20:10;;;;;;;13.07;8.52;;;7.90;93.10;;;;;;5059538;28;20035;-66
2022/04/29 05:22:36;;;;;;;13.23;8.23;;;7.90;93.10;;;;;;5061115;28;20021;-66
2022/04/29 05:25:03;;;;;;;14.55;8.55;;;7.90;93.00;;;;;;5057798;28;20032;-66
2022/04/29 05:27:28;;;;;;;16.25;9.23;;;8.00;93.10;;;;;;5058835;28;20108;-66
2022/04/29 05:29:57;;;;;;;10.38;8.10;;;8.00;93.00;;;;;;5058143;28;20095;-67
2022/04/29 05:32:23;;;;;;;14.75;8.82;;;8.00;93.00;;;;;;5048675;28;20020;-66
2022/04/29 05:34:49;;;;;;;15.13;8.98;;;8.00;93.00;;;;;;5060770;28;20313;-66
2022/04/29 05:37:15;;;;;;;14.05;10.18;;;8.00;93.00;;;;;;5052690;28;20503;-66
2022/04/29 05:42:25;;;;;;;10.65;8.57;;;8.00;93.10;;;;;;5051931;28;20519;-66
2022/04/29 05:44:51;;;;;;;14.25;8.90;;;8.00;93.20;;;;;;5055147;28;20704;-66
2022/04/29 05:47:17;;;;;;;13.65;8.30;;;8.00;93.30;;;;;;5057555;28;20056;-67
2022/04/29 05:49:42;;;;;;;12.93;7.93;;;8.10;93.20;;;;;;5049409;28;20025;-66
2022/04/29 05:52:09;;;;;;;15.35;8.95;;;8.10;93.10;;;;;;5049404;28;20098;-66
2022/04/29 05:54:35;;;;;;;11.32;8.57;;;8.10;93.20;;;;;;5058194;28;20067;-66
2022/04/29 05:57:02;;;;;;;13.43;8.63;;;8.10;93.20;;;;;;5051193;28;20080;-67
2022/04/29 05:59:28;;;;;;;14.80;8.60;;;8.20;93.10;;;;;;5051596;28;20025;-66
2022/04/29 06:01:54;;;;;;;16.77;9.35;;;8.20;93.10;;;;;;5053288;28;20037;-67
2022/04/29 06:04:20;;;;;;;11.32;8.85;;;8.20;93.20;;;;;;5053422;28;20427;-66
2022/04/29 06:06:46;;;;;;;12.45;8.65;;;8.20;93.20;;;;;;5053198;28;20021;-66
2022/04/29 06:09:12;;;;;;;17.17;10.15;;;8.20;93.10;;;;;;5053333;28;20103;-66
2022/04/29 06:11:37;;;;;;;16.75;9.32;;;8.30;93.10;;;;;;5053094;28;20450;-66
2022/04/29 06:14:03;;;;;;;14.90;9.15;;;8.30;93.20;;;;;;5052973;28;20100;-66
2022/04/29 06:16:29;;;;;;;15.77;9.85;;;8.30;93.20;;;;;;5052979;28;20507;-66
2022/04/29 06:18:54;;;;;;;16.10;9.70;;;8.30;93.20;;;;;;5068378;28;20048;-66
2022/04/29 06:21:20;;;;;;;14.82;9.63;;;8.30;93.30;;;;;;5052964;28;20083;-67
2022/04/29 06:23:46;;;;;;;16.50;10.05;;;8.30;93.30;;;;;;5052667;28;20431;-66
2022/04/29 06:26:11;;;;;;;15.52;9.38;;;8.40;93.30;;;;;;5068213;28;20021;-67
2022/04/29 06:28:39;;;;;;;15.60;9.48;;;8.40;93.20;;;;;;5052947;28;20056;-66
2022/04/29 06:31:05;;;;;;;16.40;10.30;;;8.50;93.20;;;;;;5051844;28;20021;-66
2022/04/29 06:33:32;;;;;;;18.70;9.25;;;8.50;93.10;;;;;;5049798;28;20025;-66
2022/04/29 06:35:57;;;;;;;14.55;10.20;;;8.60;93.10;;;;;;5051002;28;20020;-67
2022/04/29 06:38:24;;;;;;;16.67;8.93;;;8.60;93.00;;;;;;5049591;28;20032;-66
2022/04/29 06:40:50;;;;;;;14.02;9.82;;;8.70;93.00;;;;;;5050513;28;20076;-66
2022/04/29 06:43:16;;;;;;;13.50;8.85;;;8.70;92.90;;;;;;5050932;28;20071;-67
2022/04/29 06:45:42;;;;;;;16.65;9.80;;;8.70;92.90;;;;;;5050980;28;20482;-66
2022/04/29 06:48:08;;;;;;;18.52;10.57;;;8.80;92.80;;;;;;5050733;28;20092;-66
2022/04/29 06:50:34;;;;;;;13.18;9.25;;;8.80;92.90;;;;;;5051633;28;20048;-66
2022/04/29 06:52:59;;;;;;;16.08;9.70;;;8.80;92.90;;;;;;5051297;28;20029;-67
2022/04/29 06:55:26;;;;;;;15.98;9.98;;;8.90;92.90;;;;;;5049213;28;20031;-66
2022/04/29 06:57:52;;;;;;;14.30;8.95;;;8.90;92.70;;;;;;5048592;28;20032;-66
2022/04/29 07:00:19;;;;;;;12.32;9.05;;;9.10;92.60;;;;;;5048938;28;20112;-66
2022/04/29 07:02:44;;;;;;;14.77;8.95;;;9.10;92.40;;;;;;5048576;28;20055;-67
2022/04/29 07:05:10;;;;;;;16.67;9.02;;;9.20;92.30;;;;;;5048895;28;20013;-66
2022/04/29 07:07:36;;;;;;;18.73;9.90;;;9.20;92.20;;;;;;5048710;28;20111;-66
2022/04/29 07:10:01;;;;;;;12.40;8.82;;;9.30;92.00;;;;;;5049703;28;20472;-67
2022/04/29 07:12:27;;;;;;;12.45;8.57;;;9.30;91.90;;;;;;5051239;28;20049;-67
2022/04/29 07:14:53;;;;;;;15.65;9.75;;;9.40;91.80;;;;;;5067501;28;20381;-66
2022/04/29 07:17:20;;;;;;;14.75;8.88;;;9.40;91.70;;;;;;5050856;28;20032;-66
2022/04/29 07:19:46;;;;;;;15.45;8.73;;;9.40;91.70;;;;;;5052468;28;20029;-66
2022/04/29 07:22:11;;;;;;;17.73;9.25;;;9.40;91.70;;;;;;5052015;28;20086;-66
2022/04/29 07:24:37;;;;;;;14.07;8.57;;;9.50;91.60;;;;;;5051936;28;20064;-67
2022/04/29 07:27:03;;;;;;;13.40;8.75;;;9.60;91.50;;;;;;5051951;28;20065;-67
2022/04/29 07:29:28;;;;;;;13.15;8.43;;;9.70;91.40;;;;;;5052181;28;20024;-66
2022/04/29 07:31:54;;;;;;;13.85;7.97;;;9.80;91.30;;;;;;5051955;28;20029;-66
2022/04/29 07:34:23;;;;;;;14.57;9.00;;;9.90;91.20;;;;;;5051846;28;20025;-67
2022/04/29 07:42:18;;;;;;;14.00;8.40;;;10.20;90.90;;;;;;5052134;28;20102;-67
2022/04/29 07:44:43;;;;;;;17.45;9.52;;;10.30;90.80;;;;;;5051629;28;20476;-67
2022/04/29 07:47:09;;;;;;;17.98;10.05;;;10.30;90.70;;;;;;5052320;28;20554;-66
2022/04/29 07:49:34;;;;;;;11.80;8.23;;;10.40;90.40;;;;;;5051671;28;20032;-66
2022/04/29 07:52:00;;;;;;;13.65;8.68;;;10.50;90.20;;;;;;5069153;28;20372;-66
2022/04/29 07:54:25;;;;;;;15.10;8.60;;;10.60;90.00;;;;;;5071144;28;20029;-65
2022/04/29 07:56:52;;;;;;;12.57;9.32;;;10.70;89.60;;;;;;5061994;28;20032;-67
2022/04/29 07:59:19;;;;;;;17.00;8.80;;;10.70;89.30;;;;;;5044267;28;20570;-66
2022/04/29 08:01:45;;;;;;;13.80;8.68;;;10.80;89.00;;;;;;5035763;28;20029;-66
2022/04/29 08:04:12;;;;;;;12.48;8.38;;;10.90;88.40;;;;;;5035352;28;20111;-66
2022/04/29 08:06:39;;;;;;;12.50;8.40;;;11.00;88.20;;;;;;5035491;28;20516;-67
2022/04/29 08:09:05;;;;;;;13.50;8.52;;;11.10;87.70;;;;;;5035420;28;20465;-66
2022/04/29 08:11:31;;;;;;;11.00;6.82;;;11.10;87.40;;;;;;5035307;28;20044;-66
2022/04/29 08:13:57;;;;;;;16.23;8.32;;;11.20;87.10;;;;;;5035350;28;20396;-66
2022/04/29 08:16:22;;;;;;;14.02;7.70;;;11.30;86.70;;;;;;5035134;28;20109;-66
2022/04/29 08:18:48;;;;;;;15.10;7.72;;;11.30;86.30;;;;;;5035062;28;20495;-66
2022/04/29 08:21:14;;;;;;;12.65;7.18;;;11.40;86.00;;;;;;5050575;28;20026;-67
2022/04/29 08:23:39;;;;;;;9.45;7.45;;;11.50;86.00;;;;;;5033982;28;20067;-66
2022/04/29 08:26:05;;;;;;;12.20;7.05;;;11.50;85.30;;;;;;5042346;28;20033;-66
2022/04/29 08:28:31;;;;;;;14.00;7.95;;;11.60;85.40;;;;;;5054531;28;20100;-66
2022/04/29 08:30:56;;;;;;;12.10;7.18;;;11.70;85.20;;;;;;5054794;28;20044;-66
2022/04/29 08:33:22;;;;;;;13.57;7.78;;;11.70;84.50;;;;;;5054828;28;20025;-66
2022/04/29 08:35:47;;;;;;;13.68;7.65;;;11.80;84.40;;;;;;5055002;28;20057;-66
2022/04/29 08:38:13;;;;;;;13.98;7.30;;;11.90;84.10;;;;;;5054872;28;20091;-66
2022/04/29 08:40:41;;;;;;;9.63;6.22;;;12.00;83.80;;;;;;5054729;28;20110;-66
2022/04/29 08:43:07;;;;;;;15.50;8.18;;;12.00;83.50;;;;;;5053680;28;20029;-66
2022/04/29 08:45:33;;;;;;;11.65;7.00;;;12.10;83.00;;;;;;5053506;28;20112;-66
2022/04/29 08:47:59;;;;;;;8.23;6.15;;;12.10;82.90;;;;;;5052812;28;20159;-66
2022/04/29 08:50:26;;;;;;;12.00;6.97;;;12.10;83.10;;;;;;5052977;28;20107;-66
2022/04/29 08:52:54;;;;;;;15.82;7.47;;;12.20;83.20;;;;;;5054646;28;20030;-66
2022/04/29 09:00:49;;;;;;;10.20;6.47;;;12.30;82.00;;;;;;5046810;28;20108;-66
2022/04/29 09:03:22;;;;;;;9.65;6.45;;;12.30;81.90;;;;;;5052258;28;20029;-66
2022/04/29 09:05:48;;;;;;;11.57;5.70;;;12.50;81.80;;;;;;5050646;28;20025;-66
2022/04/29 09:08:16;;;;;;;11.30;5.75;;;12.50;81.50;;;;;;5052771;28;20051;-66
2022/04/29 09:10:49;;;;;;;8.55;5.32;;;12.60;81.90;;;;;;5052232;28;20021;-66
2022/04/29 09:13:26;;;;;;;12.15;6.38;;;12.70;81.00;;;;;;5049775;28;20056;-66
2022/04/29 09:15:57;;;;;;;10.45;5.95;;;12.90;80.90;;;;;;5052593;28;20013;-66
2022/04/29 09:18:34;;;;;;;11.55;6.45;;;13.00;80.30;;;;;;5052537;28;20124;-67
2022/04/29 09:21:04;;;;;;;11.95;5.40;;;13.10;79.60;;;;;;5052108;28;20195;-67
2022/04/29 09:23:30;;;;;;;10.82;5.80;;;13.20;79.40;;;;;;5052217;28;20058;-67
2022/04/29 09:25:59;;;;;;;8.73;6.25;;;13.40;79.00;;;;;;5051088;28;20091;-66
2022/04/29 09:28:25;;;;;;;7.97;5.05;;;13.50;78.60;;;;;;5050095;28;20415;-66
2022/04/29 09:30:55;;;;;;;8.55;4.78;;;13.50;78.40;;;;;;5052757;28;20027;-66
2022/04/29 09:33:21;;;;;;;;;;;13.60;77.60;;;;;;5052416;28;20078;-67
2022/04/29 09:35:49;;;;;;;10.57;5.90;;;13.70;77.20;;;;;;5051507;28;20384;-66
2022/04/29 09:40:59;;;;;;;10.82;4.90;;;13.70;76.40;;;;;;5053882;28;20075;-67
2022/04/29 09:43:42;;;;;;;9.82;4.38;;;13.80;76.20;;;;;;5053360;28;20431;-66
2022/04/29 09:46:37;;;;;;;6.78;4.28;;;13.90;75.90;;;;;;5051845;28;20021;-67
2022/04/29 09:49:06;;;;;;;8.57;4.70;;;14.00;75.00;;;;;;5052736;28;20029;-66
2022/04/29 09:51:49;;;;;;;8.38;4.32;;;14.00;74.50;;;;;;5053283;28;20021;-67
2022/04/29 09:54:17;;;;;;;7.72;4.07;;;14.10;74.20;;;;;;5051906;28;20033;-66
2022/04/29 09:57:02;;;;;;;6.85;3.67;;;14.20;73.60;;;;;;5052168;28;20358;-66
2022/04/29 09:59:35;;;;;;;9.27;3.78;;;14.30;73.10;;;;;;5051413;28;20385;-66
2022/04/29 10:02:01;;;;;;;7.40;4.35;;;14.40;72.40;;;;;;5056424;28;20021;-66
2022/04/29 10:04:34;;;;;;;7.63;3.50;;;14.40;71.10;;;;;;5052350;28;20060;-66
2022/04/29 10:07:07;;;;;;;7.38;3.63;;;14.40;70.50;;;;;;5052004;28;20047;-67
2022/04/29 10:09:34;;;;;;;5.72;3.20;;;14.50;70.40;;;;;;5052574;28;20031;-67
2022/04/29 10:12:03;;;;;;;7.50;3.50;;;14.50;70.00;;;;;;5051781;28;20028;-66
2022/04/29 10:14:31;;;;;;;10.43;4.22;;;14.60;69.30;;;;;;5067510;28;20044;-66
2022/04/29 10:23:08;;;;;;;5.80;3.30;;;14.80;68.10;;;;;;5032261;28;20052;-67
2022/04/29 10:25:36;;;;;;;5.63;3.28;;;14.80;67.40;;;;;;5032740;28;20425;-67
2022/04/29 10:28:03;;;;;;;8.18;3.45;;;14.90;67.30;;;;;;5033004;28;20097;-67
2022/04/29 10:30:34;;;;;;;12.00;4.88;;;15.00;66.70;;;;;;5032916;28;20026;-67
2022/04/29 10:33:17;;;;;;;5.57;3.60;;;15.00;65.70;;;;;;5047512;28;20029;-67
2022/04/29 10:35:53;;;;;;;6.38;3.47;;;15.00;66.10;;;;;;5049057;28;20032;-67
2022/04/29 10:38:27;;;;;;;7.70;3.83;;;15.00;66.10;;;;;;5050719;28;20036;-67
2022/04/29 10:41:15;;;;;;;5.40;3.60;;;15.00;66.60;;;;;;5047916;28;20017;-67
2022/04/29 10:43:46;;;;;;;5.80;3.00;;;15.10;66.80;;;;;;5050829;28;20065;-66
2022/04/29 10:46:16;;;;;;;7.85;3.95;;;15.20;67.00;;;;;;5052458;28;20068;-67
2022/04/29 10:48:42;;;;;;;;;;;15.20;67.30;;;;;;5052628;28;20027;-67
2022/04/29 10:51:18;;;;;;;5.35;3.70;;;15.20;67.60;;;;;;5051504;28;20334;-67
2022/04/29 10:53:52;;;;;;;7.82;4.18;;;15.20;67.90;;;;;;5052031;28;20120;-67
2022/04/29 10:56:33;;;;;;;8.88;4.32;;;15.30;67.90;;;;;;5052507;28;20032;-67
2022/04/29 10:59:05;;;;;;;8.68;4.32;;;15.30;67.40;;;;;;5052237;28;20476;-67
2022/04/29 11:01:34;;;;;;;5.88;3.95;;;15.30;67.50;;;;;;5052126;28;20036;-67
2022/04/29 11:04:00;;;;;;;;;;;15.30;67.50;;;;;;5052530;28;20374;-67
2022/04/29 11:06:49;;;;;;;8.00;4.30;;;15.30;67.40;;;;;;5052485;28;20007;-67
2022/04/29 11:09:48;;;;;;;8.73;4.35;;;15.30;67.50;;;;;;5052084;28;20052;-67
2022/04/29 11:12:37;;;;;;;7.03;4.43;;;15.30;67.50;;;;;;5052226;28;20029;-67
2022/04/29 11:15:07;;;;;;;7.53;3.90;;;15.30;67.30;;;;;;5052046;28;20052;-67
2022/04/29 11:17:37;;;;;;;6.30;4.47;;;15.30;67.50;;;;;;5050584;28;20044;-66
2022/04/29 11:20:32;;;;;;;8.75;5.15;;;15.40;67.40;;;;;;5051933;28;20148;-66
2022/04/29 11:25:55;;;;;;;6.57;4.70;;;15.60;67.30;;;;;;5055228;28;20028;-67
2022/04/29 11:28:22;;;;;;;8.95;4.72;;;15.70;66.70;;;;;;5058581;28;20037;-66
2022/04/29 11:30:49;;;;;;;7.22;4.90;;;15.70;66.90;;;;;;5058523;28;20053;-67
2022/04/29 11:33:20;;;;;;;8.00;4.40;;;15.70;66.70;;;;;;5058697;28;20096;-67
2022/04/29 11:35:45;;;;;;;10.30;5.70;;;15.70;66.30;;;;;;5058331;28;20029;-67
2022/04/29 11:38:11;;;;;;;7.30;3.88;;;15.70;66.30;;;;;;5058403;28;20029;-67
2022/04/29 11:40:38;;;;;;;9.55;4.28;;;15.80;66.30;;;;;;5058165;28;20095;-66
2022/04/29 11:43:08;;;;;;;6.97;4.28;;;15.90;65.90;;;;;;5057501;28;20574;-67
2022/04/29 11:45:34;;;;;;;9.15;4.65;;;16.00;65.20;;;;;;5056102;28;20032;-67
2022/04/29 11:48:07;;;;;;;7.78;4.00;;;16.00;64.80;;;;;;5056586;28;20029;-66
2022/04/29 11:50:34;;;;;;;7.28;4.57;;;16.00;64.80;;;;;;5056095;28;20056;-67
2022/04/29 11:53:07;;;;;;;8.50;4.30;;;16.00;64.90;;;;;;5056813;28;20104;-67
2022/04/29 11:55:33;;;;;;;7.47;4.55;;;16.10;64.70;;;;;;5055685;28;20021;-67
2022/04/29 11:57:59;;;;;;;8.48;4.13;;;16.00;64.50;;;;;;5072010;28;20388;-67
2022/04/29 12:00:30;;;;;;;9.13;4.55;;;16.20;64.60;;;;;;5056636;28;20017;-67
2022/04/29 12:02:57;;;;;;;8.75;4.00;;;16.30;64.10;;;;;;5056428;28;20162;-67
2022/04/29 12:05:24;;;;;;;3.83;2.72;;;16.40;63.90;;;;;;5056658;28;20156;-67
2022/04/29 12:07:50;;;;;;;8.18;4.10;;;16.60;64.00;;;;;;5053895;28;20401;-67
2022/04/29 12:10:18;;;;;;;5.55;3.60;;;16.80;63.40;;;;;;5054988;28;20021;-67
2022/04/29 12:12:47;;;;;;;6.72;3.25;;;17.00;62.90;;;;;;5056521;28;20427;-67
2022/04/29 12:15:16;;;;;;;8.77;3.60;;;17.20;62.60;;;;;;5056296;28;20021;-67
2022/04/29 12:17:42;;;;;;;6.67;3.43;;;17.30;62.30;;;;;;5056253;28;20106;-66
2022/04/29 12:20:14;;;;;;;5.22;4.03;;;17.50;62.20;;;;;;5056409;28;20270;-67
2022/04/29 12:22:40;;;;;;;4.50;2.78;;;17.60;61.20;;;;;;5056496;28;20132;-67
2022/04/29 12:25:17;;;;;;;8.40;3.92;;;17.60;61.20;;;;;;5056226;28;20564;-67
2022/04/29 12:27:43;;;;;;;8.73;4.32;;;17.70;60.60;;;;;;5071740;28;20498;-67
2022/04/29 12:36:12;;;;;;;6.95;4.18;;;18.20;58.90;;;;;;5056401;28;20032;-67
2022/04/29 12:38:39;;;;;;;6.68;3.92;;;18.60;58.90;;;;;;5049478;28;20500;-67
2022/04/29 12:41:15;;;;;;;7.35;3.53;;;18.80;58.20;;;;;;5052856;28;20017;-67
2022/04/29 12:43:41;;;;;;;6.78;3.33;;;18.90;57.60;;;;;;5053128;28;20102;-67
2022/04/29 12:46:15;;;;;;;8.48;4.18;;;19.20;57.40;;;;;;5052497;28;20029;-67
2022/04/29 12:48:51;;;;;;;5.85;3.40;;;19.50;55.80;;;;;;5054582;28;20095;-67
2022/04/29 12:51:24;;;;;;;5.70;3.20;;;19.80;56.00;;;;;;5054419;28;20017;-67
2022/04/29 12:53:51;;;;;;;9.05;4.05;;;20.20;55.20;;;;;;5054857;28;20083;-67
2022/04/29 12:56:23;;;;;;;5.13;3.10;;;20.30;53.80;;;;;;5054446;28;20036;-67
2022/04/29 12:58:59;;;;;;;8.25;3.42;;;20.40;53.40;;;;;;5054409;28;20025;-67
2022/04/29 13:01:25;;;;;;;4.88;2.72;;;20.60;52.80;;;;;;5053402;28;20538;-67
2022/04/29 13:03:58;;;;;;;5.75;3.30;;;20.80;52.80;;;;;;5052487;28;20029;-67
2022/04/29 13:06:24;;;;;;;5.10;2.85;;;20.80;51.30;;;;;;5052986;28;20017;-67
2022/04/29 13:08:57;;;;;;;6.95;3.80;;;20.90;51.50;;;;;;5052660;28;20098;-67
2022/04/29 13:11:23;;;;;;;8.00;3.78;;;20.90;50.90;;;;;;5050572;28;20550;-67
2022/04/29 13:13:51;;;;;;;5.07;3.20;;;20.90;51.20;;;;;;5052728;28;20025;-67
2022/04/29 13:16:18;;;;;;;8.10;3.08;;;21.00;51.20;;;;;;5052988;28;20455;-67
2022/04/29 13:18:44;;;;;;;4.90;2.97;;;21.10;51.20;;;;;;5053750;28;20497;-67
2022/04/29 13:21:14;;;;;;;6.72;3.20;;;21.10;50.50;;;;;;5051764;28;20112;-67
2022/04/29 13:23:41;;;;;;;7.70;3.25;;;21.10;49.70;;;;;;5051993;28;20036;-68